Time;durP1;ratioP1;P1;durP2;ratioP2;P2;SDS_P1;SDS_P2;PMS_P1;PMS_P2;Temp;Humidity;BMP_temperature;BMP_pressure;BME280_temperature;BME280_humidity;BME280_pressure;Samples;Min_cycle;Max_cycle;Signal;HPM_P1;HPM_P2
2023/01/10 00:02:53;;;;;;;4.82;2.08;;;;;;;17.24;60.32;96452.88;10380175;28;20041;-27
2023/01/10 00:07:54;;;;;;;4.27;1.87;;;;;;;17.21;60.82;96455.38;10370301;28;20410;-26
2023/01/10 00:18:13;;;;;;;3.33;1.80;;;;;;;17.14;60.88;96468.91;10364950;28;20038;-25
2023/01/10 00:23:14;;;;;;;2.50;1.63;;;;;;;17.17;60.81;96479.00;10387443;28;20095;-26
2023/01/10 00:28:22;;;;;;;3.22;2.10;;;;;;;17.17;60.73;96489.13;10378994;28;20055;-26
2023/01/10 00:33:22;;;;;;;4.47;1.65;;;;;;;17.15;60.92;96500.94;10379735;28;20398;-26
2023/01/10 00:38:23;;;;;;;3.70;2.00;;;;;;;17.11;60.88;96514.41;10394343;28;20086;-25
2023/01/10 00:48:43;;;;;;;3.45;1.95;;;;;;;17.13;60.99;96555.72;10371851;28;20113;-29
2023/01/10 00:53:43;;;;;;;4.30;1.50;;;;;;;17.13;60.76;96560.78;10394625;28;20075;-27
2023/01/10 00:58:44;;;;;;;2.60;1.70;;;;;;;17.10;61.00;96573.41;10372577;28;20029;-26
2023/01/10 01:03:44;;;;;;;3.47;1.77;;;;;;;17.16;60.46;96588.63;10371464;28;20060;-26
2023/01/10 01:08:44;;;;;;;2.07;1.43;;;;;;;17.20;60.70;96610.56;10383077;28;20033;-27
2023/01/10 01:13:45;;;;;;;2.50;1.50;;;;;;;17.20;60.74;96615.59;10381985;28;20102;-27
2023/01/10 01:18:45;;;;;;;3.50;1.40;;;;;;;17.18;61.24;96622.34;10382422;28;20045;-26
2023/01/10 01:23:48;;;;;;;3.87;1.83;;;;;;;17.17;60.80;96643.44;10387172;28;20819;-26
2023/01/10 01:28:48;;;;;;;4.82;1.67;;;;;;;17.13;61.13;96654.38;10374573;28;20045;-26
2023/01/10 01:33:50;;;;;;;6.28;1.73;;;;;;;17.11;61.21;96671.22;10390717;28;20036;-28
2023/01/10 01:38:50;;;;;;;3.30;1.73;;;;;;;17.02;60.94;96669.50;10400368;28;20049;-26
2023/01/10 01:43:58;;;;;;;2.33;1.60;;;;;;;17.10;61.04;96699.91;10384138;28;20513;-26
2023/01/10 01:48:59;;;;;;;2.88;1.40;;;;;;;17.10;61.09;96704.94;10381025;28;20084;-27
2023/01/10 01:54:06;;;;;;;2.47;1.48;;;;;;;17.08;61.03;96721.81;10393384;28;20549;-26
2023/01/10 01:59:06;;;;;;;;;;;;;;;17.09;61.11;96738.69;10376300;28;20033;-26
2023/01/10 02:04:13;;;;;;;4.10;1.50;;;;;;;17.04;61.25;96730.19;10391093;28;19939;-26
2023/01/10 02:09:24;;;;;;;3.60;1.65;;;;;;;17.08;61.06;96754.69;10384968;28;20091;-26
2023/01/10 02:14:25;;;;;;;2.45;1.30;;;;;;;17.08;61.07;96772.41;10374562;28;20485;-27
2023/01/10 02:19:44;;;;;;;2.17;1.10;;;;;;;17.14;60.93;96792.69;10372691;28;20030;-26
2023/01/10 02:24:54;;;;;;;1.60;1.17;;;;;;;17.15;60.84;96792.66;10367969;28;20034;-27
2023/01/10 02:30:09;;;;;;;3.83;1.60;;;;;;;17.10;60.60;96793.47;10374044;28;20034;-26
2023/01/10 02:35:28;;;;;;;2.58;1.38;;;;;;;17.10;60.80;96804.47;10369286;28;20080;-27
2023/01/10 02:40:43;;;;;;;7.25;1.67;;;;;;;17.09;61.03;96812.84;10366298;28;20030;-26
2023/01/10 02:45:55;;;;;;;4.00;1.52;;;;;;;17.03;60.93;96822.97;10371453;28;20564;-27
2023/01/10 02:51:19;;;;;;;2.25;1.20;;;;;;;17.08;61.04;96835.63;10356977;28;20041;-26
2023/01/10 02:56:37;;;;;;;1.83;1.38;;;;;;;17.07;60.88;96837.31;10364055;28;20619;-27
2023/01/10 03:02:01;;;;;;;2.20;1.20;;;;;;;17.08;60.61;96838.16;10390110;28;20034;-26
2023/01/10 03:07:08;;;;;;;2.08;1.42;;;;;;;17.07;60.59;96831.41;10374597;28;20037;-27
2023/01/10 03:12:13;;;;;;;2.33;1.58;;;;;;;17.07;60.63;96839.84;10373949;28;20042;-27
2023/01/10 03:17:16;;;;;;;1.85;1.10;;;;;;;17.06;60.65;96847.44;10362102;28;20111;-26
2023/01/10 03:22:17;;;;;;;5.03;1.48;;;;;;;17.04;60.85;96857.53;10382019;28;20559;-26
2023/01/10 03:27:32;;;;;;;3.83;1.25;;;;;;;17.04;60.95;96871.84;10383428;28;20034;-26
2023/01/10 03:32:33;;;;;;;2.83;1.05;;;;;;;17.12;60.42;96876.13;10370468;28;20512;-26
2023/01/10 03:37:56;;;;;;;2.50;1.23;;;;;;;17.17;60.33;96888.81;10386428;28;20044;-27
2023/01/10 03:48:31;;;;;;;1.23;0.98;;;;;;;17.05;60.41;96896.28;10372506;28;20045;-28
2023/01/10 03:53:33;;;;;;;1.90;1.20;;;;;;;17.08;60.75;96919.09;10373584;28;20034;-27
2023/01/10 03:58:33;;;;;;;2.22;1.10;;;;;;;17.08;60.41;96944.41;10352218;28;20501;-27
2023/01/10 04:03:33;;;;;;;2.45;1.30;;;;;;;17.07;60.50;96932.59;10378475;28;20030;-26
2023/01/10 04:08:34;;;;;;;2.03;1.13;;;;;;;17.04;60.76;96935.06;10378143;28;20712;-27
2023/01/10 04:13:35;;;;;;;2.75;1.05;;;;;;;17.04;60.80;96947.72;10377149;28;20489;-25
2023/01/10 04:18:35;;;;;;;2.08;1.15;;;;;;;17.03;60.97;96956.16;10373570;28;20038;-26
2023/01/10 04:23:36;;;;;;;1.20;1.08;;;;;;;17.03;60.38;96951.09;10385660;28;20072;-27
2023/01/10 04:28:36;;;;;;;1.88;1.38;;;;;;;17.00;60.51;96946.00;10391256;28;20034;-26
2023/01/10 04:33:37;;;;;;;2.60;1.33;;;;;;;17.04;60.74;96960.38;10390183;28;20044;-26
2023/01/10 04:38:38;;;;;;;3.67;1.00;;;;;;;17.02;60.92;96957.84;10381009;28;20775;-26
2023/01/10 04:43:38;;;;;;;2.43;1.17;;;;;;;17.05;60.70;96969.66;10366505;28;20108;-25
2023/01/10 04:48:38;;;;;;;1.47;0.80;;;;;;;17.15;59.94;96984.94;10377089;28;20034;-26
2023/01/10 04:53:40;;;;;;;1.40;1.10;;;;;;;17.19;59.73;96983.28;10390336;28;20375;-26
2023/01/10 04:58:40;;;;;;;1.30;0.80;;;;;;;17.20;59.48;96998.50;10349414;28;20025;-27
2023/01/10 05:03:40;;;;;;;4.63;1.00;;;;;;;17.20;59.42;96995.09;10323450;28;20441;-26
2023/01/10 05:08:41;;;;;;;1.73;1.00;;;;;;;17.18;59.43;97010.28;10338732;28;20030;-26
2023/01/10 05:13:41;;;;;;;2.58;1.00;;;;;;;17.21;59.57;97024.63;10341236;28;20030;-27
2023/01/10 05:18:42;;;;;;;1.27;0.95;;;;;;;17.23;59.15;97020.44;10358307;28;20022;-26
2023/01/10 05:23:42;;;;;;;1.83;1.10;;;;;;;17.26;58.71;97030.59;10373322;28;20026;-26
2023/01/10 05:28:43;;;;;;;2.15;1.17;;;;;;;17.25;58.36;97036.47;10379000;28;20289;-27
2023/01/10 05:33:49;;;;;;;1.60;0.95;;;;;;;17.27;58.86;97042.41;10377284;28;20033;-27
2023/01/10 05:38:49;;;;;;;1.95;0.80;;;;;;;17.25;58.43;97033.94;10376795;28;20041;-26
2023/01/10 05:43:49;;;;;;;4.03;1.37;;;;;;;17.24;58.79;97048.28;10377705;28;20033;-27
2023/01/10 05:48:51;;;;;;;2.13;0.93;;;;;;;17.25;58.28;97047.44;10381644;28;20087;-26
2023/01/10 05:53:52;;;;;;;2.78;1.38;;;;;;;17.24;58.56;97052.50;10377980;28;21041;-25
2023/01/10 05:58:52;;;;;;;2.53;1.20;;;;;;;17.24;57.91;97043.22;10364530;28;20095;-26
2023/01/10 06:03:52;;;;;;;5.40;1.47;;;;;;;17.34;59.10;97060.19;10380599;28;20699;-27
2023/01/10 06:08:55;;;;;;;18.33;1.87;;;;;;;17.42;58.28;97067.91;10386306;28;20140;-26
2023/01/10 06:13:58;;;;;;;3.33;1.50;;;;;;;17.44;57.95;97071.28;10365841;28;20026;-26
2023/01/10 06:18:58;;;;;;;4.85;1.48;;;;;;;17.45;58.63;97072.97;10352324;28;20122;-26
2023/01/10 06:23:59;;;;;;;4.00;1.90;;;;;;;17.47;57.95;97081.44;10388865;28;20031;-27
2023/01/10 06:28:59;;;;;;;7.90;1.80;;;;;;;17.45;57.52;97093.22;10370654;28;20390;-26
2023/01/10 06:33:59;;;;;;;16.23;8.97;;;;;;;17.10;55.14;97109.69;10369148;28;20033;-26
2023/01/10 06:39:00;;;;;;;17.43;9.67;;;;;;;17.16;55.78;97104.72;10388875;28;20390;-26
2023/01/10 06:44:01;;;;;;;17.42;9.15;;;;;;;17.28;56.07;97125.06;10376812;28;20034;-26
2023/01/10 06:49:01;;;;;;;20.20;8.03;;;;;;;17.28;56.69;97120.88;10375436;28;20033;-28
2023/01/10 06:54:02;;;;;;;15.57;7.23;;;;;;;17.31;57.03;97145.38;10387319;28;20069;-27
2023/01/10 06:59:02;;;;;;;15.23;6.80;;;;;;;17.31;57.19;97151.25;10362209;28;20322;-26
2023/01/10 07:04:02;;;;;;;16.60;7.20;;;;;;;17.32;57.41;97169.84;10367033;28;20033;-26
2023/01/10 07:09:04;;;;;;;17.42;6.82;;;;;;;17.34;57.09;97178.28;10382592;28;20041;-25
2023/01/10 07:14:05;;;;;;;10.05;5.57;;;;;;;17.35;57.83;97187.56;10369301;28;20089;-27
2023/01/10 07:19:05;;;;;;;7.70;5.20;;;;;;;17.34;57.35;97184.19;10361050;28;20088;-27
2023/01/10 07:24:09;;;;;;;12.00;5.33;;;;;;;17.31;58.30;97190.91;10364898;28;20584;-26
2023/01/10 07:29:09;;;;;;;8.27;4.72;;;;;;;17.29;57.98;97192.56;10379071;28;20042;-26
2023/01/10 07:34:09;;;;;;;8.40;5.00;;;;;;;17.26;58.28;97197.59;10387755;28;20041;-26
2023/01/10 07:39:10;;;;;;;7.53;3.93;;;;;;;17.23;58.44;97203.47;10382362;28;20057;-27
2023/01/10 07:44:10;;;;;;;7.50;4.80;;;;;;;17.22;58.44;97198.38;10380853;28;20044;-27
2023/01/10 07:49:12;;;;;;;6.68;3.67;;;;;;;17.23;58.42;97225.41;10367475;28;20180;-26
2023/01/10 07:54:13;;;;;;;9.00;4.18;;;;;;;17.21;58.43;97240.56;10376541;28;20185;-27
2023/01/10 07:59:13;;;;;;;7.60;3.63;;;;;;;17.20;58.53;97255.69;10364958;28;20124;-26
2023/01/10 08:04:13;;;;;;;6.50;3.70;;;;;;;17.19;58.55;97257.41;10372729;28;20041;-27
2023/01/10 08:09:14;;;;;;;6.80;3.57;;;;;;;17.20;58.54;97258.22;10384469;28;20093;-26
2023/01/10 08:14:14;;;;;;;7.22;4.00;;;;;;;17.18;58.66;97265.81;10360722;28;20042;-26
2023/01/10 08:19:16;;;;;;;4.83;3.47;;;;;;;17.19;58.63;97272.59;10390330;28;20522;-26
2023/01/10 08:24:17;;;;;;;6.28;3.53;;;;;;;17.23;59.09;97271.78;10392913;28;20497;-27
2023/01/10 08:29:17;;;;;;;6.03;3.27;;;;;;;17.23;59.46;97269.25;10373439;28;20045;-26
2023/01/10 08:34:17;;;;;;;6.37;3.83;;;;;;;17.26;58.24;97278.56;10391160;28;20030;-26
2023/01/10 08:39:21;;;;;;;4.50;3.30;;;;;;;17.20;59.10;97293.66;10394920;28;20033;-27
2023/01/10 08:44:22;;;;;;;7.97;3.42;;;;;;;17.18;59.12;97293.66;10385374;28;20537;-27
2023/01/10 08:49:22;;;;;;;5.95;3.70;;;;;;;17.17;59.30;97303.75;10369233;28;20077;-27
2023/01/10 08:54:23;;;;;;;6.38;3.95;;;;;;;17.13;59.12;97299.47;10368415;28;20443;-27
2023/01/10 08:59:23;;;;;;;6.25;3.30;;;;;;;17.16;59.05;97304.56;10381894;28;20038;-27
2023/01/10 09:04:25;;;;;;;6.20;3.50;;;;;;;17.17;59.34;97308.81;10374228;28;20046;-26
2023/01/10 09:09:25;;;;;;;6.47;3.22;;;;;;;17.13;59.49;97310.44;10376261;28;20350;-26
2023/01/10 09:14:25;;;;;;;4.27;2.83;;;;;;;17.12;59.44;97328.13;10378154;28;20434;-26
2023/01/10 09:19:26;;;;;;;5.90;3.13;;;;;;;17.10;59.05;97327.25;10373938;28;20104;-26
2023/01/10 09:24:26;;;;;;;4.00;2.83;;;;;;;17.16;59.08;97337.47;10367691;28;20545;-26
2023/01/10 09:29:26;;;;;;;3.73;2.73;;;;;;;17.16;59.05;97342.53;10383912;28;20087;-27
2023/01/10 09:34:27;;;;;;;3.77;2.70;;;;;;;17.21;58.42;97345.97;10371739;28;20033;-27
2023/01/10 09:39:28;;;;;;;5.70;2.83;;;;;;;17.22;59.03;97350.19;10386594;28;20021;-27
2023/01/10 09:45:05;;;;;;;3.83;2.60;;;;;;;17.25;57.93;97355.31;10372805;28;20029;-27
2023/01/10 09:50:23;;;;;;;5.30;3.13;;;;;;;17.21;58.93;97361.13;10364111;28;20041;-25
2023/01/10 09:55:30;;;;;;;5.25;2.78;;;;;;;17.18;59.44;97361.09;10383124;28;20477;-26
2023/01/10 10:00:38;;;;;;;4.47;2.60;;;;;;;17.15;59.52;97366.97;10372449;28;20034;-26
2023/01/10 10:05:39;;;;;;;4.40;3.20;;;;;;;17.14;59.63;97364.44;10387571;28;20026;-26
2023/01/10 10:11:00;;;;;;;4.33;2.90;;;;;;;17.14;59.43;97364.44;10369526;28;20486;-26
2023/01/10 10:16:13;;;;;;;6.82;3.28;;;;;;;17.14;59.29;97354.31;10364982;28;20300;-26
2023/01/10 10:21:35;;;;;;;4.63;2.95;;;;;;;17.12;59.27;97361.00;10373025;28;20045;-26
2023/01/10 10:27:07;;;;;;;5.00;2.40;;;;;;;17.12;59.31;97371.13;10354666;28;20390;-27
2023/01/10 10:32:30;;;;;;;4.25;2.58;;;;;;;17.11;59.50;97372.81;10367198;28;20057;-26
2023/01/10 10:37:50;;;;;;;3.55;2.47;;;;;;;17.11;59.41;97374.50;10383492;28;20088;-27
2023/01/10 10:42:52;;;;;;;3.67;2.60;;;;;;;17.11;59.38;97379.53;10378398;28;20064;-26
2023/01/10 10:48:00;;;;;;;3.53;2.83;;;;;;;17.13;59.65;97368.63;10363535;28;20073;-26
2023/01/10 10:53:04;;;;;;;4.60;2.50;;;;;;;17.16;59.88;97360.25;10369794;28;20035;-26
2023/01/10 10:58:06;;;;;;;3.25;2.20;;;;;;;17.21;58.62;97358.63;10383918;28;20057;-27
2023/01/10 11:03:24;;;;;;;4.93;2.30;;;;;;;17.16;59.49;97377.94;10380867;28;20136;-26
2023/01/10 11:08:25;;;;;;;3.95;2.42;;;;;;;17.12;59.76;97363.53;10373122;28;20037;-26
2023/01/10 11:13:42;;;;;;;4.22;2.13;;;;;;;17.09;59.35;97366.03;10374935;28;20068;-28
2023/01/10 11:18:42;;;;;;;;;;;;;;;17.11;59.03;97365.22;10378963;28;20391;-26
2023/01/10 11:23:51;;;;;;;2.67;2.00;;;;;;;17.12;58.92;97366.94;10375011;28;19913;-26
2023/01/10 11:29:02;;;;;;;4.00;2.20;;;;;;;17.15;58.91;97366.13;10378233;28;20063;-26
2023/01/10 11:34:15;;;;;;;2.78;2.20;;;;;;;17.19;58.79;97360.28;10372912;28;20034;-27
2023/01/10 11:39:16;;;;;;;3.03;2.13;;;;;;;17.23;58.63;97354.44;10361353;28;20037;-27
2023/01/10 11:44:26;;;;;;;4.72;1.92;;;;;;;17.24;57.77;97340.97;10368917;28;20586;-27
2023/01/10 11:49:37;;;;;;;2.88;1.88;;;;;;;17.28;57.54;97345.22;10364386;28;20044;-26
2023/01/10 11:54:40;;;;;;;3.58;2.10;;;;;;;17.31;58.49;97341.06;10370635;28;20042;-26
2023/01/10 12:00:02;;;;;;;6.05;2.30;;;;;;;17.39;58.55;97333.59;10365421;28;20529;-26
2023/01/10 12:05:19;;;;;;;3.53;2.30;;;;;;;17.45;58.76;97321.03;10371907;28;20037;-26
2023/01/10 12:10:22;;;;;;;4.85;2.22;;;;;;;17.43;60.28;97326.09;10362687;28;20034;-27
2023/01/10 12:15:27;;;;;;;3.97;2.65;;;;;;;17.41;60.52;97314.25;10369615;28;20046;-26
2023/01/10 12:20:31;;;;;;;9.38;2.35;;;;;;;17.41;58.35;97311.72;10383606;28;20108;-26
2023/01/10 12:25:39;;;;;;;4.65;2.08;;;;;;;17.43;58.62;97303.31;10369006;28;20693;-27
2023/01/10 12:30:48;;;;;;;10.82;4.38;;;;;;;17.36;58.40;97288.00;10373539;28;20025;-26
2023/01/10 12:35:55;;;;;;;22.63;12.50;;;;;;;17.44;58.32;97294.03;10372031;28;20117;-27
2023/01/10 12:41:01;;;;;;;26.45;14.27;;;;;;;17.44;57.71;97283.91;10370956;28;20409;-26
2023/01/10 12:46:12;;;;;;;29.65;17.33;;;;;;;17.43;57.98;97283.06;10376148;28;20033;-26
2023/01/10 12:51:19;;;;;;;26.35;17.38;;;;;;;17.44;57.54;97273.78;10369180;28;20042;-27
2023/01/10 12:56:20;;;;;;;21.17;12.25;;;;;;;17.44;57.45;97263.66;10375265;28;20040;-27
2023/01/10 13:01:28;;;;;;;24.17;17.23;;;;;;;17.44;57.53;97266.19;10369500;28;20478;-27
2023/01/10 13:06:31;;;;;;;23.20;13.52;;;;;;;17.44;57.48;97268.72;10364098;28;20034;-26
2023/01/10 13:11:41;;;;;;;55.30;33.90;;;;;;;17.42;60.04;97261.09;10371885;28;20107;-26
2023/01/10 13:16:47;;;;;;;46.38;28.88;;;;;;;17.49;59.61;97241.78;10370795;28;20163;-28
2023/01/10 13:21:48;;;;;;;48.33;27.27;;;;;;;17.51;58.87;97240.13;10370078;28;20100;-28
2023/01/10 13:26:56;;;;;;;28.05;17.60;;;;;;;17.49;57.06;97234.19;10363042;28;20084;-27
2023/01/10 13:32:00;;;;;;;29.88;19.25;;;;;;;17.47;56.92;97225.72;10366569;28;20069;-26
2023/01/10 13:37:12;;;;;;;31.95;18.85;;;;;;;17.34;58.52;97233.97;10389116;28;20042;-27
2023/01/10 13:47:54;;;;;;;56.58;34.67;;;;;;;17.26;59.55;97217.84;10368129;28;20039;-26
2023/01/10 13:53:01;;;;;;;62.95;37.58;;;;;;;17.23;59.96;97212.75;10375605;28;20045;-26
2023/01/10 13:58:12;;;;;;;69.85;42.88;;;;;;;17.21;60.14;97197.53;10362347;28;20062;-27
2023/01/10 14:03:50;;;;;;;63.60;40.17;;;;;;;17.25;60.31;97199.25;10375671;28;20048;-27
2023/01/10 14:08:53;;;;;;;67.10;43.65;;;;;;;17.20;60.79;97187.38;10373443;28;20034;-27
2023/01/10 14:13:57;;;;;;;60.15;39.53;;;;;;;17.23;60.73;97203.47;10370150;28;20141;-26
2023/01/10 14:18:58;;;;;;;63.80;38.80;;;;;;;17.24;60.28;97212.75;10366989;28;20095;-27
2023/01/10 14:23:58;;;;;;;68.95;44.10;;;;;;;17.29;59.94;97212.81;10378690;28;20037;-26
2023/01/10 14:29:05;;;;;;;65.47;41.10;;;;;;;17.31;60.05;97212.00;10381660;28;20513;-26
2023/01/10 14:34:10;;;;;;;60.78;37.17;;;;;;;17.32;60.10;97212.88;10374113;28;20036;-27
2023/01/10 14:39:14;;;;;;;69.00;42.47;;;;;;;17.26;60.43;97205.19;10368978;28;20037;-26
2023/01/10 14:44:25;;;;;;;71.15;44.70;;;;;;;17.22;60.78;97198.38;10376899;28;20556;-26
2023/01/10 14:49:34;;;;;;;79.88;46.83;;;;;;;17.20;61.01;97197.50;10355450;28;20077;-27
2023/01/10 14:54:34;;;;;;;73.97;47.85;;;;;;;17.22;60.97;97191.66;10375680;28;20030;-26
2023/01/10 14:59:35;;;;;;;67.70;42.10;;;;;;;17.20;60.96;97184.84;10363575;28;20041;-26
2023/01/10 15:04:37;;;;;;;69.07;42.80;;;;;;;17.21;60.83;97173.91;10368214;28;20037;-25
2023/01/10 15:09:38;;;;;;;74.53;46.45;;;;;;;17.21;60.82;97166.31;10374644;28;20113;-26
2023/01/10 15:14:38;;;;;;;73.85;46.45;;;;;;;17.20;60.80;97157.88;10373335;28;20050;-26
2023/01/10 15:19:39;;;;;;;75.85;47.85;;;;;;;17.20;60.86;97144.38;10371971;28;20034;-26
2023/01/10 15:24:42;;;;;;;69.53;45.00;;;;;;;17.18;61.21;97139.31;10357472;28;20502;-26
2023/01/10 15:29:45;;;;;;;73.18;44.92;;;;;;;17.19;61.00;97141.00;10358867;28;20725;-26
2023/01/10 15:34:49;;;;;;;68.55;42.92;;;;;;;17.21;61.41;97129.22;10357261;28;20038;-26
2023/01/10 15:39:51;;;;;;;67.50;41.22;;;;;;;17.23;60.53;97116.59;10376748;28;20176;-26
2023/01/10 15:44:53;;;;;;;62.55;39.47;;;;;;;17.27;60.73;97128.44;10360385;28;20502;-26
2023/01/10 15:49:53;;;;;;;53.88;33.80;;;;;;;17.15;58.08;97133.38;10356998;28;20038;-27
2023/01/10 15:54:55;;;;;;;67.22;37.70;;;;;;;17.17;59.83;97129.16;10367567;28;20034;-26
2023/01/10 15:59:57;;;;;;;60.42;37.00;;;;;;;17.20;59.97;97126.66;10355018;28;20406;-26
2023/01/10 16:05:06;;;;;;;62.58;36.42;;;;;;;17.22;60.16;97122.47;10389078;28;20037;-27
2023/01/10 16:10:13;;;;;;;44.78;28.75;;;;;;;17.20;58.22;97124.13;10362877;28;20780;-26
2023/01/10 16:15:17;;;;;;;59.08;36.95;;;;;;;17.19;59.87;97128.38;10372482;28;20041;-27
2023/01/10 16:20:36;;;;;;;52.75;33.42;;;;;;;17.21;60.62;97130.88;10367921;28;20038;-26
2023/01/10 16:25:38;;;;;;;57.10;31.25;;;;;;;17.26;59.60;97132.63;10362608;28;20058;-26
2023/01/10 16:30:47;;;;;;;50.20;31.35;;;;;;;17.26;60.24;97121.69;10373441;28;20162;-26
2023/01/10 16:35:50;;;;;;;49.15;30.90;;;;;;;17.20;60.45;97119.94;10357306;28;20034;-26
2023/01/10 16:40:59;;;;;;;50.35;31.50;;;;;;;17.25;59.31;97114.94;10379817;28;20044;-26
2023/01/10 16:45:59;;;;;;;46.50;27.98;;;;;;;17.31;60.03;97115.00;10373517;28;20507;-26
2023/01/10 16:51:05;;;;;;;44.60;29.60;;;;;;;17.34;59.37;97115.03;10364236;28;20030;-27
2023/01/10 16:56:06;;;;;;;42.17;26.20;;;;;;;17.24;59.61;97108.16;10356344;28;20569;-26
2023/01/10 17:01:12;;;;;;;40.65;26.17;;;;;;;17.30;59.48;97101.47;10374938;28;20132;-26
2023/01/10 17:06:14;;;;;;;40.97;24.45;;;;;;;17.32;58.74;97107.41;10380955;28;20052;-27
2023/01/10 17:11:23;;;;;;;40.33;24.65;;;;;;;17.31;58.62;97109.94;10376005;28;20508;-26
2023/01/10 17:16:24;;;;;;;41.60;23.83;;;;;;;17.32;58.80;97104.03;10371081;28;20049;-27
2023/01/10 17:21:25;;;;;;;36.70;23.85;;;;;;;17.32;59.76;97106.56;10365037;28;20401;-25
2023/01/10 17:26:25;;;;;;;39.42;23.63;;;;;;;17.28;59.21;97087.13;10363178;28;20041;-27
2023/01/10 17:31:26;;;;;;;35.28;23.15;;;;;;;17.25;60.62;97079.50;10366945;28;20502;-26
2023/01/10 17:36:31;;;;;;;38.20;23.13;;;;;;;17.26;59.97;97092.16;10361496;28;20034;-27
2023/01/10 17:41:32;;;;;;;34.47;23.02;;;;;;;17.21;60.14;97093.78;10357550;28;20034;-26
2023/01/10 17:46:32;;;;;;;34.88;21.23;;;;;;;17.24;59.67;97077.81;10370627;28;20034;-26
2023/01/10 17:51:33;;;;;;;33.80;20.73;;;;;;;17.26;59.38;97086.25;10360714;28;20037;-27
2023/01/10 17:56:33;;;;;;;30.90;19.47;;;;;;;17.31;59.24;97071.97;10363530;28;20030;-27
2023/01/10 18:01:33;;;;;;;34.43;20.80;;;;;;;17.33;58.70;97066.06;10373462;28;20034;-27
2023/01/10 18:06:34;;;;;;;30.00;18.73;;;;;;;17.37;58.86;97061.94;10381744;28;20033;-25
2023/01/10 18:11:34;;;;;;;28.23;17.43;;;;;;;17.33;58.61;97062.72;10383201;28;20030;-26
2023/01/10 18:16:34;;;;;;;31.37;19.57;;;;;;;17.30;59.23;97061.00;10370009;28;20291;-26
2023/01/10 18:21:35;;;;;;;32.37;19.40;;;;;;;17.27;59.66;97068.56;10356449;28;20041;-26
2023/01/10 18:26:35;;;;;;;29.83;18.67;;;;;;;17.31;58.88;97062.69;10372620;28;20025;-26
2023/01/10 18:31:35;;;;;;;30.43;18.07;;;;;;;17.35;58.73;97055.97;10369200;28;20038;-26
2023/01/10 18:36:38;;;;;;;26.30;17.13;;;;;;;17.29;59.89;97055.91;10377510;28;20092;-26
2023/01/10 18:41:39;;;;;;;26.33;16.88;;;;;;;17.32;59.34;97066.09;10356151;28;20030;-26
2023/01/10 18:46:39;;;;;;;25.83;15.97;;;;;;;17.31;59.22;97066.91;10374070;28;20022;-27
2023/01/10 18:51:39;;;;;;;26.33;16.37;;;;;;;17.25;60.43;97070.22;10361380;28;20116;-27
2023/01/10 18:56:40;;;;;;;41.67;15.57;;;;;;;17.26;60.38;97060.94;10372515;28;20038;-27
2023/01/10 19:01:40;;;;;;;33.23;15.80;;;;;;;17.22;60.73;97051.63;10357120;28;20044;-26
2023/01/10 19:06:43;;;;;;;26.13;15.55;;;;;;;17.27;60.75;97048.31;10370289;28;20104;-27
2023/01/10 19:11:43;;;;;;;30.50;14.35;;;;;;;17.31;60.64;97052.56;10367577;28;20102;-27
2023/01/10 19:16:43;;;;;;;24.60;14.10;;;;;;;17.30;60.68;97027.25;10353048;28;20140;-27
2023/01/10 19:21:44;;;;;;;30.50;14.23;;;;;;;17.23;60.93;97038.16;10358954;28;20030;-27
2023/01/10 19:26:44;;;;;;;22.20;13.05;;;;;;;17.17;61.03;97030.50;10372074;28;20445;-26
2023/01/10 19:31:47;;;;;;;23.47;12.87;;;;;;;17.17;61.11;97015.31;10362305;28;20073;-27
2023/01/10 19:36:47;;;;;;;24.42;12.50;;;;;;;17.19;60.53;97013.66;10359291;28;20080;-26
2023/01/10 19:41:47;;;;;;;24.13;12.07;;;;;;;17.15;61.13;96996.75;10372176;28;20040;-26
2023/01/10 19:46:49;;;;;;;19.57;11.47;;;;;;;17.18;61.01;96992.56;10371012;28;20053;-27
2023/01/10 19:51:52;;;;;;;21.63;11.85;;;;;;;17.17;61.22;96990.03;10364412;28;20611;-26
2023/01/10 19:56:52;;;;;;;20.38;11.80;;;;;;;17.20;60.75;96984.97;10354327;28;20042;-26
2023/01/10 20:01:53;;;;;;;18.77;10.97;;;;;;;17.16;60.71;96973.16;10361607;28;20046;-26
2023/01/10 20:06:53;;;;;;;17.03;11.33;;;;;;;17.14;60.91;96984.94;10369830;28;20988;-28
2023/01/10 20:11:53;;;;;;;15.57;10.20;;;;;;;17.13;60.60;96980.69;10357505;28;20042;-27
2023/01/10 20:16:54;;;;;;;17.92;10.73;;;;;;;17.17;60.79;96975.66;10354472;28;20049;-26
2023/01/10 20:21:54;;;;;;;16.93;9.50;;;;;;;17.24;60.25;96971.53;10346151;28;20065;-27
2023/01/10 20:26:57;;;;;;;18.17;11.03;;;;;;;17.20;60.40;96970.66;10358331;28;20469;-27
2023/01/10 20:31:59;;;;;;;17.70;9.43;;;;;;;17.21;60.92;96968.97;10359910;28;20788;-27
2023/01/10 20:37:00;;;;;;;19.30;10.63;;;;;;;17.24;60.66;96961.41;10360668;28;20045;-27
2023/01/10 20:42:00;;;;;;;16.03;9.67;;;;;;;17.29;60.10;96970.72;10349676;28;20041;-27
2023/01/10 20:47:01;;;;;;;14.40;8.87;;;;;;;17.27;60.21;96966.50;10372097;28;20296;-27
2023/01/10 20:52:01;;;;;;;13.75;9.18;;;;;;;17.27;60.46;96976.63;10369194;28;20133;-26
2023/01/10 20:57:01;;;;;;;17.77;9.23;;;;;;;17.25;60.47;96965.63;10375101;28;20418;-27
2023/01/10 21:02:02;;;;;;;18.08;9.70;;;;;;;17.26;60.30;96949.63;10378549;28;20049;-27
2023/01/10 21:07:04;;;;;;;16.10;10.47;;;;;;;17.24;60.57;96958.88;10370861;28;20500;-27
2023/01/10 21:12:05;;;;;;;16.02;9.00;;;;;;;17.23;60.57;96954.66;10372735;28;20038;-27
2023/01/10 21:17:05;;;;;;;16.42;8.68;;;;;;;17.22;60.58;96955.47;10366525;28;20471;-27
2023/01/10 21:22:05;;;;;;;14.53;8.77;;;;;;;17.23;60.21;96965.63;10379538;28;20036;-27
2023/01/10 21:27:06;;;;;;;13.73;8.85;;;;;;;17.23;60.32;96970.66;10377650;28;20104;-27
2023/01/10 21:32:08;;;;;;;16.43;9.23;;;;;;;17.28;59.93;96968.19;10378889;28;20473;-27
2023/01/10 21:37:08;;;;;;;14.02;8.00;;;;;;;17.27;60.39;96966.50;10361289;28;20030;-27
2023/01/10 21:47:29;;;;;;;14.65;7.85;;;;;;;17.18;60.86;96963.88;10367207;28;20056;-27
2023/01/10 21:52:29;;;;;;;14.10;8.93;;;;;;;17.13;60.82;96958.78;10382943;28;20037;-27
2023/01/10 21:57:30;;;;;;;11.02;7.32;;;;;;;17.14;60.69;96954.59;10363920;28;20409;-26
2023/01/10 22:02:30;;;;;;;13.30;7.33;;;;;;;17.15;60.89;96951.22;10379373;28;20038;-27
2023/01/10 22:07:30;;;;;;;11.83;7.87;;;;;;;17.12;60.71;96938.53;10365698;28;20273;-29
2023/01/10 22:12:31;;;;;;;12.33;7.43;;;;;;;17.12;60.64;96943.59;10364616;28;20781;-26
2023/01/10 22:17:31;;;;;;;10.50;7.10;;;;;;;17.10;60.84;96938.53;10360822;28;20042;-28
2023/01/10 22:22:32;;;;;;;11.47;7.80;;;;;;;17.10;60.79;96927.53;10367000;28;20036;-27
2023/01/10 22:27:32;;;;;;;12.90;7.40;;;;;;;17.09;60.85;96930.91;10381294;28;20056;-26
2023/01/10 22:32:32;;;;;;;13.27;7.60;;;;;;;17.10;60.96;96925.03;10365720;28;20298;-26
2023/01/10 22:37:33;;;;;;;10.93;7.07;;;;;;;17.10;60.77;96932.59;10363714;28;20668;-27
2023/01/10 22:42:34;;;;;;;10.10;6.35;;;;;;;17.15;60.58;96930.97;10382287;28;20045;-27
2023/01/10 22:47:35;;;;;;;11.00;6.70;;;;;;;17.20;60.53;96924.25;10365811;28;20025;-26
2023/01/10 22:52:35;;;;;;;12.20;7.73;;;;;;;17.20;60.43;96909.06;10371421;28;20283;-26
2023/01/10 22:57:35;;;;;;;11.73;6.87;;;;;;;17.13;60.94;96912.38;10360504;28;20040;-26
2023/01/10 23:02:36;;;;;;;11.37;7.00;;;;;;;17.10;60.79;96918.28;10372444;28;20064;-27
2023/01/10 23:07:36;;;;;;;8.77;6.33;;;;;;;17.09;60.64;96921.63;10372469;28;20274;-26
2023/01/10 23:12:36;;;;;;;8.67;6.37;;;;;;;17.05;60.70;96906.41;10369000;28;20041;-27
2023/01/10 23:17:37;;;;;;;7.37;5.87;;;;;;;17.07;60.97;96912.34;10365496;28;20037;-28
2023/01/10 23:22:37;;;;;;;11.73;6.33;;;;;;;17.09;60.80;96905.63;10372892;28;20060;-27
2023/01/10 23:27:37;;;;;;;9.73;6.53;;;;;;;17.08;60.75;96903.94;10359962;28;20423;-27
2023/01/10 23:32:38;;;;;;;9.07;6.20;;;;;;;17.08;60.74;96898.88;10348794;28;20076;-27
2023/01/10 23:37:38;;;;;;;8.17;5.60;;;;;;;17.06;60.76;96891.25;10360516;28;20022;-27
2023/01/10 23:42:38;;;;;;;8.67;5.73;;;;;;;17.07;60.64;96889.59;10372866;28;20048;-26
2023/01/10 23:47:39;;;;;;;10.27;5.60;;;;;;;17.06;60.85;96885.38;10366066;28;20030;-26